Capron, Oklahoma
Current Conditions -  °F | °C
As of 7:55 PM on Saturday 20 Dec 2014 (Local Time) from KAVK Reporting Station
Overcast Overcast  
Wind Chill: 34°   Ceiling: 2100
Heat Index: 39°   Visibility: 10mi
Dew Point: 39°   Wind: 7mph
Humidity: 100%   Direction: 140°SE
Pressure: 30.11"   Gusts: NA
Location:  36.8367°N, 98.8022°W
Report Text: KAVK 210155Z AUTO 14006KT 10SM OVC021 04/04 A3011 RMK AO2
Loading
Personal Weather Stations






























Interactive Weather Map New forecast layout! Learn more

10-Day Weather Forecast

Advertisements
Track Severe Weather on mobile